Hoeven/Seppe, Netherlands
Current Conditions -  °F | °C
As of 4:03 AM on Wednesday 22 Oct 2014 (Local Time) from EHWO Reporting Station
Light Rain Light Rain  
Wind Chill: 40°   Ceiling: 3600
Heat Index: 46°   Visibility: 6mi
Dew Point: 43°   Wind: 16mph
Humidity: 87%   Direction: 300°WNW
Pressure: 29.97"   Gusts: NA
Location:  51.55°N, 4.55°E
Report Text: EHWO 220203Z AUTO 30014KT 9999 -RA FEW021 SCT025 OVC036 08/06 Q1015 RERA REDZ BLU
Loading
Personal Weather Stations






























Interactive Weather Map
Tropical Storm Tracking
New forecast layout! Learn more

10-Day Weather Forecast

Advertisements
Track Severe Weather on mobile